Time;durP1;ratioP1;P1;durP2;ratioP2;P2;SDS_P1;SDS_P2;PMS_P1;PMS_P2;Temp;Humidity;BMP_temperature;BMP_pressure;BME280_temperature;BME280_humidity;BME280_pressure;Samples;Min_cycle;Max_cycle;Signal;HPM_P1;HPM_P2
2023/05/12 00:02:12;;;;;;;;;;;12.00;68.50;;;;;;5034115;28;87098;-41
2023/05/12 00:04:39;;;;;;;;;;;12.10;68.50;;;;;;5032316;28;87374;-40
2023/05/12 00:07:05;;;;;;;;;;;12.10;68.50;;;;;;5034396;28;87105;-41
2023/05/12 00:09:31;;;;;;;;;;;12.00;68.50;;;;;;5034514;28;87073;-42
2023/05/12 00:11:57;;;;;;;;;;;12.00;69.20;;;;;;5033044;28;87867;-41
2023/05/12 00:14:22;;;;;;;;;;;12.00;68.50;;;;;;5032605;28;88973;-41
2023/05/12 00:16:50;;;;;;;;;;;12.00;68.50;;;;;;5035054;28;87520;-41
2023/05/12 00:19:19;;;;;;;;;;;12.00;68.50;;;;;;5036303;28;89050;-41
2023/05/12 00:21:44;;;;;;;;;;;12.00;68.50;;;;;;5032792;28;87168;-41
2023/05/12 00:24:10;;;;;;;;;;;12.00;68.50;;;;;;5034097;28;87629;-41
2023/05/12 00:26:36;;;;;;;;;;;12.00;68.50;;;;;;5034442;28;87911;-41
2023/05/12 00:29:01;;;;;;;;;;;12.00;68.60;;;;;;5032667;28;87186;-41
2023/05/12 00:31:28;;;;;;;;;;;12.00;68.60;;;;;;5034050;28;87503;-40
2023/05/12 00:33:53;;;;;;;;;;;12.00;68.50;;;;;;5034593;28;88119;-41
2023/05/12 00:36:19;;;;;;;;;;;12.00;68.50;;;;;;5031897;27;87231;-41
2023/05/12 00:38:44;;;;;;;;;;;12.00;68.50;;;;;;5031977;28;87896;-41
2023/05/12 00:41:10;;;;;;;;;;;12.00;68.40;;;;;;5037182;28;88094;-41
2023/05/12 00:43:36;;;;;;;;;;;12.00;68.50;;;;;;5033152;28;88749;-41
2023/05/12 00:46:03;;;;;;;;;;;12.00;68.50;;;;;;5031859;28;87098;-41
2023/05/12 00:48:28;;;;;;;;;;;12.00;68.50;;;;;;5033770;28;87104;-41
2023/05/12 00:50:55;;;;;;;;;;;12.00;68.60;;;;;;5034687;28;87578;-40
2023/05/12 00:53:21;;;;;;;;;;;12.00;68.60;;;;;;5027820;28;89528;-41
2023/05/12 00:55:46;;;;;;;;;;;12.00;68.50;;;;;;5033107;28;87284;-41
2023/05/12 00:58:12;;;;;;;;;;;12.00;68.40;;;;;;5034552;28;87104;-41
2023/05/12 01:00:37;;;;;;;;;;;12.00;68.70;;;;;;5032215;28;89288;-41
2023/05/12 01:03:03;;;;;;;;;;;11.90;68.60;;;;;;5034590;28;88062;-41
2023/05/12 01:05:30;;;;;;;;;;;11.90;68.50;;;;;;5033296;28;89242;-41
2023/05/12 01:07:58;;;;;;;;;;;12.00;68.40;;;;;;5033532;28;87458;-40
2023/05/12 01:10:24;;;;;;;;;;;11.90;68.50;;;;;;5031756;27;87057;-41
2023/05/12 01:12:49;;;;;;;;;;;11.90;68.50;;;;;;5032781;28;88028;-41
2023/05/12 01:15:16;;;;;;;;;;;12.00;68.50;;;;;;5034040;28;87244;-41
2023/05/12 01:17:45;;;;;;;;;;;12.00;68.30;;;;;;5032215;28;87092;-41
2023/05/12 01:20:12;;;;;;;;;;;12.00;68.50;;;;;;5031523;28;87800;-41
2023/05/12 01:22:38;;;;;;;;;;;11.90;68.50;;;;;;5036494;28;87074;-40
2023/05/12 01:25:06;;;;;;;;;;;11.90;68.50;;;;;;5032906;28;87986;-40
2023/05/12 01:27:32;;;;;;;;;;;11.90;68.50;;;;;;5030701;28;88106;-41
2023/05/12 01:29:59;;;;;;;;;;;11.90;68.40;;;;;;5032804;27;88323;-42
2023/05/12 01:32:25;;;;;;;;;;;11.90;68.50;;;;;;5033151;28;89975;-41
2023/05/12 01:34:50;;;;;;;;;;;11.90;68.60;;;;;;5032486;28;87421;-41
2023/05/12 01:37:16;;;;;;;;;;;11.90;69.20;;;;;;5031364;27;87350;-41
2023/05/12 01:39:41;;;;;;;;;;;11.90;68.60;;;;;;5033391;28;87918;-42
2023/05/12 01:42:07;;;;;;;;;;;11.90;68.70;;;;;;5032968;28;87243;-41
2023/05/12 01:44:33;;;;;;;;;;;12.00;68.60;;;;;;5034420;27;86326;-41
2023/05/12 01:46:58;;;;;;;;;;;11.90;68.50;;;;;;5032676;28;87201;-41
2023/05/12 01:49:24;;;;;;;;;;;11.90;68.60;;;;;;5033047;28;87400;-41
2023/05/12 01:51:49;;;;;;;;;;;11.90;68.50;;;;;;5030275;28;88015;-41
2023/05/12 01:54:15;;;;;;;;;;;11.90;68.50;;;;;;5031733;28;87112;-41
2023/05/12 01:56:41;;;;;;;;;;;11.90;68.50;;;;;;5033407;28;87965;-41
2023/05/12 01:59:06;;;;;;;;;;;11.90;69.10;;;;;;5030748;28;89391;-41
2023/05/12 02:01:32;;;;;;;;;;;11.90;68.40;;;;;;5031358;28;87136;-40
2023/05/12 02:03:58;;;;;;;;;;;11.90;68.40;;;;;;5033068;28;87419;-42
2023/05/12 02:06:23;;;;;;;;;;;11.90;68.40;;;;;;5033933;28;89426;-41
2023/05/12 02:08:49;;;;;;;;;;;11.90;68.50;;;;;;5031427;27;87140;-41
2023/05/12 02:11:15;;;;;;;;;;;11.90;68.60;;;;;;5032331;28;87959;-41
2023/05/12 02:13:41;;;;;;;;;;;11.80;68.50;;;;;;5033014;28;87091;-41
2023/05/12 02:16:06;;;;;;;;;;;11.90;68.60;;;;;;5029350;28;88655;-40
2023/05/12 02:18:32;;;;;;;;;;;11.90;68.70;;;;;;5031695;28;88080;-41
2023/05/12 02:20:57;;;;;;;;;;;11.90;68.70;;;;;;5033068;28;86986;-41
2023/05/12 02:23:23;;;;;;;;;;;11.80;68.50;;;;;;5030635;28;87221;-41
2023/05/12 02:25:48;;;;;;;;;;;11.90;68.60;;;;;;5031302;28;87263;-41
2023/05/12 02:28:14;;;;;;;;;;;11.80;68.60;;;;;;5035796;28;87181;-41
2023/05/12 02:30:49;;;;;;;;;;;11.80;68.70;;;;;;5030404;28;89202;-41
2023/05/12 02:33:15;;;;;;;;;;;11.80;68.60;;;;;;5031261;28;86359;-40
2023/05/12 02:35:42;;;;;;;;;;;11.80;68.50;;;;;;5031596;27;87044;-41
2023/05/12 02:38:07;;;;;;;;;;;11.80;68.60;;;;;;5032246;28;88163;-41
2023/05/12 02:40:33;;;;;;;;;;;11.80;68.60;;;;;;5030472;28;88419;-41
2023/05/12 02:42:58;;;;;;;;;;;11.80;68.70;;;;;;5030911;28;87698;-41
2023/05/12 02:45:24;;;;;;;;;;;11.80;68.70;;;;;;5032583;28;88010;-40
2023/05/12 02:47:49;;;;;;;;;;;11.80;68.70;;;;;;5031704;28;87075;-41
2023/05/12 02:50:15;;;;;;;;;;;11.80;68.70;;;;;;5032582;27;87035;-41
2023/05/12 02:52:41;;;;;;;;;;;11.80;68.80;;;;;;5031467;28;87912;-42
2023/05/12 02:55:06;;;;;;;;;;;11.70;68.70;;;;;;5032110;28;87254;-41
2023/05/12 02:57:32;;;;;;;;;;;11.70;68.80;;;;;;5030342;28;87266;-41
2023/05/12 03:00:04;;;;;;;;;;;11.70;68.70;;;;;;5033408;28;87099;-41
2023/05/12 03:02:29;;;;;;;;;;;11.80;68.60;;;;;;5035878;28;87241;-41
2023/05/12 03:04:55;;;;;;;;;;;11.70;68.70;;;;;;5033168;28;89158;-41
2023/05/12 03:07:20;;;;;;;;;;;11.80;68.70;;;;;;5032973;28;87127;-42
2023/05/12 03:09:46;;;;;;;;;;;11.70;68.70;;;;;;5035196;28;87489;-41
2023/05/12 03:12:12;;;;;;;;;;;11.70;68.70;;;;;;5037916;28;88133;-41
2023/05/12 03:14:38;;;;;;;;;;;11.70;68.80;;;;;;5033406;27;87454;-42
2023/05/12 03:17:03;;;;;;;;;;;11.70;68.80;;;;;;5034583;28;88182;-41
2023/05/12 03:19:29;;;;;;;;;;;11.70;68.70;;;;;;5036144;28;87099;-41
2023/05/12 03:21:54;;;;;;;;;;;11.70;68.70;;;;;;5033954;28;87454;-41
2023/05/12 03:24:20;;;;;;;;;;;11.70;68.70;;;;;;5033451;28;88030;-41
2023/05/12 03:26:45;;;;;;;;;;;11.70;68.80;;;;;;5035748;28;87168;-41
2023/05/12 03:29:11;;;;;;;;;;;11.70;68.70;;;;;;5033272;28;88678;-40
2023/05/12 03:31:36;;;;;;;;;;;11.70;68.80;;;;;;5035421;28;87946;-41
2023/05/12 03:34:02;;;;;;;;;;;11.60;68.70;;;;;;5035368;28;87400;-40
2023/05/12 03:36:27;;;;;;;;;;;11.60;68.70;;;;;;5034030;28;87740;-41
2023/05/12 03:38:53;;;;;;;;;;;11.70;68.70;;;;;;5032907;28;87124;-41
2023/05/12 03:41:18;;;;;;;;;;;11.60;68.70;;;;;;5034459;28;87457;-41
2023/05/12 03:43:44;;;;;;;;;;;11.60;68.80;;;;;;5034398;28;88134;-40
2023/05/12 03:46:10;;;;;;;;;;;11.60;68.70;;;;;;5033089;28;86509;-41
2023/05/12 03:48:36;;;;;;;;;;;11.60;68.70;;;;;;5033654;27;87963;-41
2023/05/12 03:51:02;;;;;;;;;;;11.60;68.60;;;;;;5033971;28;89535;-41
2023/05/12 03:53:28;;;;;;;;;;;11.60;68.70;;;;;;5035543;28;88124;-41
2023/05/12 03:55:53;;;;;;;;;;;11.60;68.70;;;;;;5032250;28;87957;-40
2023/05/12 03:58:21;;;;;;;;;;;11.60;68.70;;;;;;5035013;28;87267;-41
2023/05/12 04:00:48;;;;;;;;;;;11.60;68.80;;;;;;5034334;28;88871;-40
2023/05/12 04:03:14;;;;;;;;;;;11.60;68.70;;;;;;5032187;28;87952;-41
2023/05/12 04:05:41;;;;;;;;;;;11.60;68.60;;;;;;5033136;28;87206;-41
2023/05/12 04:08:07;;;;;;;;;;;11.50;68.70;;;;;;5034509;28;87725;-41
2023/05/12 04:10:37;;;;;;;;;;;11.60;68.70;;;;;;5032692;28;86973;-41
2023/05/12 04:13:02;;;;;;;;;;;11.60;68.70;;;;;;5032246;28;87783;-40
2023/05/12 04:15:28;;;;;;;;;;;11.50;68.70;;;;;;5037012;28;87874;-42
2023/05/12 04:17:53;;;;;;;;;;;11.50;68.60;;;;;;5033928;28;88271;-41
2023/05/12 04:20:19;;;;;;;;;;;11.50;68.50;;;;;;5032358;28;88558;-41
2023/05/12 04:22:44;;;;;;;;;;;11.50;68.50;;;;;;5033136;28;88316;-40
2023/05/12 04:25:10;;;;;;;;;;;11.60;68.60;;;;;;5034103;28;87110;-41
2023/05/12 04:27:35;;;;;;;;;;;11.50;68.60;;;;;;5028495;28;87203;-40
2023/05/12 04:30:01;;;;;;;;;;;11.50;68.60;;;;;;5031994;28;89481;-40
2023/05/12 04:32:26;;;;;;;;;;;11.50;68.60;;;;;;5034564;28;87103;-41
2023/05/12 04:34:55;;;;;;;;;;;11.50;68.60;;;;;;5033251;28;86614;-41
2023/05/12 04:37:21;;;;;;;;;;;11.50;68.50;;;;;;5034070;28;89585;-41
2023/05/12 04:39:47;;;;;;;;;;;11.50;68.60;;;;;;5033914;28;87656;-41
2023/05/12 04:42:12;;;;;;;;;;;11.50;68.60;;;;;;5032564;28;90378;-40
2023/05/12 04:44:38;;;;;;;;;;;11.50;68.60;;;;;;5031527;28;87080;-41
2023/05/12 04:47:03;;;;;;;;;;;11.50;68.60;;;;;;5033507;27;87349;-41
2023/05/12 04:49:29;;;;;;;;;;;11.50;68.50;;;;;;5033261;28;89454;-41
2023/05/12 04:51:55;;;;;;;;;;;11.50;68.50;;;;;;5031549;28;87140;-41
2023/05/12 04:54:20;;;;;;;;;;;11.50;68.50;;;;;;5032358;27;87370;-41
2023/05/12 04:56:46;;;;;;;;;;;11.50;68.60;;;;;;5033473;28;87278;-41
2023/05/12 04:59:14;;;;;;;;;;;11.50;68.60;;;;;;5035784;28;86351;-41
2023/05/12 05:01:40;;;;;;;;;;;11.50;68.60;;;;;;5030534;28;89208;-41
2023/05/12 05:04:06;;;;;;;;;;;11.50;68.70;;;;;;5032715;28;87625;-41
2023/05/12 05:06:32;;;;;;;;;;;11.50;68.50;;;;;;5032670;28;88022;-40
2023/05/12 05:08:57;;;;;;;;;;;11.40;68.50;;;;;;5030691;28;89386;-41
2023/05/12 05:11:23;;;;;;;;;;;11.50;68.50;;;;;;5031859;28;87022;-41
2023/05/12 05:13:48;;;;;;;;;;;11.40;68.50;;;;;;5033292;28;88946;-40
2023/05/12 05:16:14;;;;;;;;;;;11.40;68.50;;;;;;5031114;28;88047;-42
2023/05/12 05:18:44;;;;;;;;;;;11.40;68.60;;;;;;5031824;28;87119;-41
2023/05/12 05:21:13;;;;;;;;;;;11.40;68.60;;;;;;5029563;28;88868;-41
2023/05/12 05:23:40;;;;;;;;;;;11.40;68.60;;;;;;5031369;28;86416;-41
2023/05/12 05:26:06;;;;;;;;;;;11.40;68.60;;;;;;5027835;28;87094;-41
2023/05/12 05:28:31;;;;;;;;;;;11.40;69.10;;;;;;5031257;28;87721;-41
2023/05/12 05:30:57;;;;;;;;;;;11.40;68.50;;;;;;5032960;28;87764;-40
2023/05/12 05:33:22;;;;;;;;;;;11.40;68.50;;;;;;5031624;28;88412;-41
2023/05/12 05:35:48;;;;;;;;;;;11.40;68.50;;;;;;5030591;28;87275;-41
2023/05/12 05:38:14;;;;;;;;;;;11.40;68.50;;;;;;5033565;28;87164;-41
2023/05/12 05:40:39;;;;;;;;;;;11.40;68.50;;;;;;5035497;28;87896;-41
2023/05/12 05:43:05;;;;;;;;;;;11.40;68.50;;;;;;5030608;28;87386;-40
2023/05/12 05:45:31;;;;;;;;;;;11.40;68.40;;;;;;5032493;28;88898;-41
2023/05/12 05:47:56;;;;;;;;;;;11.40;68.50;;;;;;5033383;28;87327;-41
2023/05/12 05:50:22;;;;;;;;;;;11.30;68.60;;;;;;5030989;28;87179;-41
2023/05/12 05:52:48;;;;;;;;;;;11.30;68.60;;;;;;5031618;28;87383;-41
2023/05/12 05:55:13;;;;;;;;;;;11.40;68.60;;;;;;5031930;28;90475;-41
2023/05/12 05:57:38;;;;;;;;;;;11.30;68.60;;;;;;5030760;28;87158;-40
2023/05/12 06:00:05;;;;;;;;;;;11.30;68.60;;;;;;5031021;28;87408;-41
2023/05/12 06:02:32;;;;;;;;;;;11.30;68.60;;;;;;5035197;28;88603;-41
2023/05/12 06:04:58;;;;;;;;;;;11.30;68.50;;;;;;5031249;28;88978;-40
2023/05/12 06:07:24;;;;;;;;;;;11.40;68.50;;;;;;5030209;28;89510;-41
2023/05/12 06:09:52;;;;;;;;;;;11.30;68.50;;;;;;5032369;28;87579;-41
2023/05/12 06:12:17;;;;;;;;;;;11.30;68.60;;;;;;5033818;28;87037;-41
2023/05/12 06:14:43;;;;;;;;;;;11.30;68.60;;;;;;5027097;28;87980;-41
2023/05/12 06:17:08;;;;;;;;;;;11.30;68.50;;;;;;5030973;28;87507;-41
2023/05/12 06:19:34;;;;;;;;;;;11.30;68.60;;;;;;5032040;28;88010;-41
2023/05/12 06:21:59;;;;;;;;;;;11.30;68.60;;;;;;5031003;28;88091;-41
2023/05/12 06:24:25;;;;;;;;;;;11.30;68.60;;;;;;5033794;28;87156;-41
2023/05/12 06:26:50;;;;;;;;;;;11.30;68.70;;;;;;5032014;28;88961;-41
2023/05/12 06:29:16;;;;;;;;;;;11.30;68.70;;;;;;5031485;28;87542;-41
2023/05/12 06:31:41;;;;;;;;;;;11.30;68.70;;;;;;5030400;27;87492;-41
2023/05/12 06:34:07;;;;;;;;;;;11.30;68.70;;;;;;5034231;28;87216;-40
2023/05/12 06:36:33;;;;;;;;;;;11.30;68.60;;;;;;5036300;28;86387;-41
2023/05/12 06:38:58;;;;;;;;;;;11.20;68.80;;;;;;5034040;28;87073;-41
2023/05/12 06:41:24;;;;;;;;;;;11.20;68.80;;;;;;5034347;28;87874;-41
2023/05/12 06:43:50;;;;;;;;;;;11.20;68.80;;;;;;5035320;28;88153;-41
2023/05/12 06:46:16;;;;;;;;;;;11.30;68.80;;;;;;5036405;28;88288;-41
2023/05/12 06:48:42;;;;;;;;;;;11.20;68.80;;;;;;5033664;28;87134;-41
2023/05/12 06:51:08;;;;;;;;;;;11.20;68.80;;;;;;5035856;28;87900;-41
2023/05/12 06:53:36;;;;;;;;;;;11.20;68.80;;;;;;5034115;28;90027;-40
2023/05/12 06:56:02;;;;;;;;;;;11.20;68.80;;;;;;5033285;28;87045;-41
2023/05/12 06:58:28;;;;;;;;;;;11.20;68.90;;;;;;5035055;28;87397;-42
2023/05/12 07:00:53;;;;;;;;;;;11.20;68.90;;;;;;5036008;28;87445;-41
2023/05/12 07:03:19;;;;;;;;;;;11.20;68.90;;;;;;5029510;28;87111;-42
2023/05/12 07:05:45;;;;;;;;;;;11.20;68.90;;;;;;5033808;28;87414;-41
2023/05/12 07:08:10;;;;;;;;;;;11.20;68.90;;;;;;5037105;28;89982;-41
2023/05/12 07:10:36;;;;;;;;;;;11.20;69.50;;;;;;5033860;28;88410;-41
2023/05/12 07:13:02;;;;;;;;;;;11.20;68.90;;;;;;5032661;28;87748;-41
2023/05/12 07:15:28;;;;;;;;;;;11.20;68.90;;;;;;5035748;27;87139;-41
2023/05/12 07:17:54;;;;;;;;;;;11.20;69.00;;;;;;5034435;28;87474;-41
2023/05/12 07:20:20;;;;;;;;;;;11.20;68.90;;;;;;5032305;28;88072;-41
2023/05/12 07:22:46;;;;;;;;;;;11.20;69.00;;;;;;5034843;28;87108;-42
2023/05/12 07:25:12;;;;;;;;;;;11.20;69.60;;;;;;5035608;28;87448;-42
2023/05/12 07:27:37;;;;;;;;;;;11.20;69.00;;;;;;5028603;28;89202;-42
2023/05/12 07:30:04;;;;;;;;;;;11.20;68.80;;;;;;5036658;28;87489;-42
2023/05/12 07:32:30;;;;;;;;;;;11.20;68.90;;;;;;5034141;28;89250;-41
2023/05/12 07:34:55;;;;;;;;;;;11.20;68.90;;;;;;5033415;28;87707;-41
2023/05/12 07:37:21;;;;;;;;;;;11.20;68.80;;;;;;5032876;28;87439;-41
2023/05/12 07:39:46;;;;;;;;;;;11.20;69.00;;;;;;5028917;28;87945;-41
2023/05/12 07:42:12;;;;;;;;;;;11.20;69.00;;;;;;5033724;28;87448;-41
2023/05/12 07:44:37;;;;;;;;;;;11.20;68.80;;;;;;5034187;28;87571;-41
2023/05/12 07:47:04;;;;;;;;;;;11.30;68.90;;;;;;5032707;28;89361;-40
2023/05/12 07:49:29;;;;;;;;;;;11.20;69.00;;;;;;5035674;28;86612;-42
2023/05/12 07:51:55;;;;;;;;;;;11.20;69.10;;;;;;5034619;28;88096;-41
2023/05/12 07:54:21;;;;;;;;;;;11.20;69.00;;;;;;5034134;28;87033;-40
2023/05/12 07:56:46;;;;;;;;;;;11.20;69.10;;;;;;5031774;27;88138;-41
2023/05/12 07:59:13;;;;;;;;;;;11.30;69.20;;;;;;5033785;28;87961;-41
2023/05/12 08:01:38;;;;;;;;;;;11.30;69.20;;;;;;5034419;28;87111;-41
2023/05/12 08:04:05;;;;;;;;;;;11.20;69.20;;;;;;5031624;28;87255;-41
2023/05/12 08:06:31;;;;;;;;;;;11.30;69.20;;;;;;5032703;28;89428;-41
2023/05/12 08:08:57;;;;;;;;;;;11.30;69.30;;;;;;5034496;28;88015;-41
2023/05/12 08:11:23;;;;;;;;;;;11.30;69.50;;;;;;5035661;28;87295;-41
2023/05/12 08:13:48;;;;;;;;;;;11.30;69.40;;;;;;5032466;28;86263;-41
2023/05/12 08:16:14;;;;;;;;;;;11.20;69.40;;;;;;5028953;28;87047;-40
2023/05/12 08:18:40;;;;;;;;;;;11.20;69.40;;;;;;5032409;28;88628;-41
2023/05/12 08:21:05;;;;;;;;;;;11.20;69.40;;;;;;5033958;28;88051;-41
2023/05/12 08:23:31;;;;;;;;;;;11.30;69.60;;;;;;5033133;28;88388;-41
2023/05/12 08:25:56;;;;;;;;;;;11.30;69.40;;;;;;5031889;28;88194;-41
2023/05/12 08:28:22;;;;;;;;;;;11.30;69.40;;;;;;5032225;28;87463;-41
2023/05/12 08:30:47;;;;;;;;;;;11.30;69.40;;;;;;5033000;28;87468;-41
2023/05/12 08:33:13;;;;;;;;;;;11.30;69.40;;;;;;5036605;28;88153;-41
2023/05/12 08:35:38;;;;;;;;;;;11.30;69.50;;;;;;5032174;28;88124;-41
2023/05/12 08:38:04;;;;;;;;;;;11.30;69.60;;;;;;5032577;28;87213;-40
2023/05/12 08:40:32;;;;;;;;;;;11.30;69.70;;;;;;5033846;28;87072;-41
2023/05/12 08:42:58;;;;;;;;;;;11.30;69.50;;;;;;5033173;28;87694;-41
2023/05/12 08:45:23;;;;;;;;;;;11.30;69.60;;;;;;5030386;28;89162;-41
2023/05/12 08:47:50;;;;;;;;;;;11.30;69.60;;;;;;5033189;28;87080;-41
2023/05/12 08:50:16;;;;;;;;;;;11.30;69.70;;;;;;5033481;28;88924;-41
2023/05/12 08:52:42;;;;;;;;;;;11.30;69.50;;;;;;5028082;28;87897;-41
2023/05/12 08:55:08;;;;;;;;;;;11.40;69.60;;;;;;5034394;28;87183;-41
2023/05/12 08:57:34;;;;;;;;;;;11.30;69.70;;;;;;5029995;28;88144;-41
2023/05/12 09:00:01;;;;;;;;;;;11.30;69.70;;;;;;5033015;28;86960;-41
2023/05/12 09:02:27;;;;;;;;;;;11.40;69.80;;;;;;5033934;28;86420;-41
2023/05/12 09:04:56;;;;;;;;;;;11.40;69.80;;;;;;5030576;28;89106;-41
2023/05/12 09:07:23;;;;;;;;;;;11.40;70.00;;;;;;5031336;28;87564;-41
2023/05/12 09:09:53;;;;;;;;;;;11.40;70.00;;;;;;5027259;28;88432;-41
2023/05/12 09:12:20;;;;;;;;;;;11.40;70.30;;;;;;5030995;28;87917;-41
2023/05/12 09:14:46;;;;;;;;;;;11.40;70.20;;;;;;5027621;28;87131;-41
2023/05/12 09:17:12;;;;;;;;;;;11.40;70.00;;;;;;5034224;27;87077;-41
2023/05/12 09:19:38;;;;;;;;;;;11.40;70.10;;;;;;5033565;28;87211;-41
2023/05/12 09:22:04;;;;;;;;;;;11.50;70.00;;;;;;5031842;28;88623;-41
2023/05/12 09:24:36;;;;;;;;;;;11.40;70.00;;;;;;5031101;28;87931;-41
2023/05/12 09:27:02;;;;;;;;;;;11.50;69.90;;;;;;5032426;28;86329;-40
2023/05/12 09:29:28;;;;;;;;;;;11.50;69.80;;;;;;5033220;28;88064;-41
2023/05/12 09:31:56;;;;;;;;;;;11.50;70.10;;;;;;5030898;28;88151;-40
2023/05/12 09:34:31;;;;;;;;;;;11.50;70.00;;;;;;5030286;28;88153;-41
2023/05/12 09:36:57;;;;;;;;;;;11.50;70.10;;;;;;5031931;28;88309;-42
2023/05/12 09:39:23;;;;;;;;;;;11.50;70.20;;;;;;5030546;27;87121;-41
2023/05/12 09:41:49;;;;;;;;;;;11.50;70.20;;;;;;5032358;28;87540;-41
2023/05/12 09:44:15;;;;;;;;;;;11.50;70.20;;;;;;5032656;28;89365;-41
2023/05/12 09:46:41;;;;;;;;;;;11.50;70.60;;;;;;5030668;28;87226;-41
2023/05/12 09:49:07;;;;;;;;;;;11.50;70.40;;;;;;5031863;27;87794;-41
2023/05/12 09:51:32;;;;;;;;;;;11.50;70.10;;;;;;5032987;28;89010;-41
2023/05/12 09:53:58;;;;;;;;;;;11.50;70.40;;;;;;5031402;28;88268;-40
2023/05/12 09:56:26;;;;;;;;;;;11.40;70.70;;;;;;5030624;28;87872;-41
2023/05/12 09:58:53;;;;;;;;;;;11.50;70.40;;;;;;5028753;28;91522;-41
2023/05/12 10:01:20;;;;;;;;;;;11.50;70.50;;;;;;5031140;28;88198;-41
2023/05/12 10:03:56;;;;;;;;;;;11.40;70.40;;;;;;5031338;28;89327;-41
2023/05/12 10:06:23;;;;;;;;;;;11.40;70.70;;;;;;5032660;28;87515;-41
2023/05/12 10:08:49;;;;;;;;;;;11.40;70.90;;;;;;5030671;28;91240;-40
2023/05/12 10:11:15;;;;;;;;;;;11.40;70.90;;;;;;5030827;28;88041;-41
2023/05/12 10:13:41;;;;;;;;;;;11.40;70.70;;;;;;5032746;28;87197;-42
2023/05/12 10:16:07;;;;;;;;;;;11.40;70.60;;;;;;5032090;28;87484;-40
2023/05/12 10:18:33;;;;;;;;;;;11.40;70.80;;;;;;5029707;28;88539;-41
2023/05/12 10:20:59;;;;;;;;;;;11.40;70.90;;;;;;5035283;28;87100;-41
2023/05/12 10:23:25;;;;;;;;;;;11.40;70.80;;;;;;5031493;28;88854;-41
2023/05/12 10:25:52;;;;;;;;;;;11.50;70.70;;;;;;5029952;28;87071;-41
2023/05/12 10:28:19;;;;;;;;;;;11.50;70.30;;;;;;5030654;27;89175;-41
2023/05/12 10:30:45;;;;;;;;;;;11.50;71.00;;;;;;5032045;28;89710;-41
2023/05/12 10:33:10;;;;;;;;;;;11.40;71.00;;;;;;5031848;28;87480;-41
2023/05/12 10:35:37;;;;;;;;;;;11.40;70.70;;;;;;5030326;28;87458;-41
2023/05/12 10:38:10;;;;;;;;;;;11.50;70.90;;;;;;5031904;28;89651;-42
2023/05/12 10:40:36;;;;;;;;;;;11.50;70.50;;;;;;5033523;28;86463;-41
2023/05/12 10:43:02;;;;;;;;;;;11.50;70.40;;;;;;5033741;28;87214;-41
2023/05/12 10:45:28;;;;;;;;;;;11.60;70.50;;;;;;5030715;28;86997;-41
2023/05/12 10:48:03;;;;;;;;;;;11.60;70.40;;;;;;5032145;28;89392;-41
2023/05/12 10:50:29;;;;;;;;;;;11.60;70.30;;;;;;5032500;28;87921;-41
2023/05/12 10:52:55;;;;;;;;;;;11.50;70.40;;;;;;5030659;28;87112;-41
2023/05/12 10:55:35;;;;;;;;;;;11.60;70.40;;;;;;5030533;28;87435;-42
2023/05/12 10:58:04;;;;;;;;;;;11.60;70.30;;;;;;5029457;28;88128;-41
2023/05/12 11:00:31;;;;;;;;;;;11.60;70.40;;;;;;5029995;28;87146;-41
2023/05/12 11:02:56;;;;;;;;;;;11.50;70.60;;;;;;5031090;28;87500;-41
2023/05/12 11:05:32;;;;;;;;;;;11.50;70.50;;;;;;5035342;28;87468;-41
2023/05/12 11:07:57;;;;;;;;;;;11.60;70.40;;;;;;5032500;28;87395;-41
2023/05/12 11:10:23;;;;;;;;;;;11.60;70.50;;;;;;5030094;28;86984;-40
2023/05/12 11:12:49;;;;;;;;;;;11.60;70.50;;;;;;5030631;28;88049;-41
2023/05/12 11:15:15;;;;;;;;;;;11.60;70.20;;;;;;5032363;28;88645;-41
2023/05/12 11:17:40;;;;;;;;;;;11.60;70.80;;;;;;5030147;28;88061;-41
2023/05/12 11:20:08;;;;;;;;;;;11.70;70.20;;;;;;5031699;28;87137;-41
2023/05/12 11:22:34;;;;;;;;;;;11.60;70.20;;;;;;5035459;27;89312;-41
2023/05/12 11:25:07;;;;;;;;;;;11.70;70.20;;;;;;5034653;28;88164;-41
2023/05/12 11:27:33;;;;;;;;;;;11.70;70.30;;;;;;5033533;28;87072;-41
2023/05/12 11:29:59;;;;;;;;;;;11.70;70.10;;;;;;5034225;28;86932;-42
2023/05/12 11:32:25;;;;;;;;;;;11.70;70.40;;;;;;5035648;28;87150;-41
2023/05/12 11:34:50;;;;;;;;;;;11.70;70.20;;;;;;5034316;28;88811;-41
2023/05/12 11:37:19;;;;;;;;;;;11.70;70.20;;;;;;5031972;28;88988;-41
2023/05/12 11:39:45;;;;;;;;;;;11.70;70.30;;;;;;5034517;28;87137;-41
2023/05/12 11:42:10;;;;;;;;;;;11.70;70.30;;;;;;5035460;28;87382;-42
2023/05/12 11:44:36;;;;;;;;;;;11.70;70.20;;;;;;5032679;28;87922;-41
2023/05/12 11:47:02;;;;;;;;;;;11.70;70.40;;;;;;5036730;28;87222;-41
2023/05/12 11:49:29;;;;;;;;;;;11.70;70.50;;;;;;5035335;28;88079;-41
2023/05/12 11:51:58;;;;;;;;;;;11.70;70.40;;;;;;5033300;28;87136;-41
2023/05/12 11:54:24;;;;;;;;;;;11.70;70.20;;;;;;5033809;27;87289;-41
2023/05/12 11:56:50;;;;;;;;;;;11.70;70.60;;;;;;5034411;28;87794;-41
2023/05/12 11:59:32;;;;;;;;;;;11.70;70.30;;;;;;5035269;28;87144;-42
2023/05/12 12:01:59;;;;;;;;;;;11.80;70.20;;;;;;5032332;28;88112;-41
2023/05/12 12:04:30;;;;;;;;;;;11.80;70.20;;;;;;5032062;28;88141;-42
2023/05/12 12:06:56;;;;;;;;;;;11.80;70.30;;;;;;5033048;28;87127;-41
2023/05/12 12:09:29;;;;;;;;;;;11.80;70.30;;;;;;5037496;28;87432;-42
2023/05/12 12:11:54;;;;;;;;;;;11.80;70.40;;;;;;5035168;28;87563;-41
2023/05/12 12:14:20;;;;;;;;;;;11.70;70.30;;;;;;5029068;28;87298;-41
2023/05/12 12:16:45;;;;;;;;;;;11.80;70.50;;;;;;5033202;28;87531;-41
2023/05/12 12:19:11;;;;;;;;;;;11.80;70.30;;;;;;5035145;28;86375;-41
2023/05/12 12:21:36;;;;;;;;;;;11.80;70.50;;;;;;5033344;28;87031;-41
2023/05/12 12:24:02;;;;;;;;;;;11.80;70.60;;;;;;5032685;28;88060;-41
2023/05/12 12:26:27;;;;;;;;;;;11.80;70.70;;;;;;5034062;28;88161;-40
2023/05/12 12:28:53;;;;;;;;;;;11.80;70.50;;;;;;5033660;28;88363;-41
2023/05/12 12:31:18;;;;;;;;;;;11.80;70.70;;;;;;5034432;28;88088;-42
2023/05/12 12:33:44;;;;;;;;;;;11.90;70.50;;;;;;5034428;28;87078;-41
2023/05/12 12:36:09;;;;;;;;;;;11.90;70.50;;;;;;5033898;28;88076;-41
2023/05/12 12:38:35;;;;;;;;;;;11.90;70.60;;;;;;5032002;28;87213;-41
2023/05/12 12:41:00;;;;;;;;;;;11.80;71.20;;;;;;5033563;28;87399;-41
2023/05/12 12:43:26;;;;;;;;;;;11.80;70.50;;;;;;5034828;28;87229;-41
2023/05/12 12:45:53;;;;;;;;;;;11.80;70.90;;;;;;5032452;28;87825;-40
2023/05/12 12:48:19;;;;;;;;;;;11.90;70.60;;;;;;5032535;27;87361;-42
2023/05/12 12:50:44;;;;;;;;;;;11.90;70.60;;;;;;5033490;28;90615;-41
2023/05/12 12:53:10;;;;;;;;;;;11.90;70.30;;;;;;5035600;28;87074;-42
2023/05/12 12:55:36;;;;;;;;;;;11.90;70.50;;;;;;5031799;28;88278;-41
2023/05/12 12:58:01;;;;;;;;;;;11.90;70.40;;;;;;5033543;28;87049;-41
2023/05/12 13:00:27;;;;;;;;;;;11.90;70.60;;;;;;5033915;28;87453;-41
2023/05/12 13:02:52;;;;;;;;;;;12.00;70.70;;;;;;5030916;28;89503;-41
2023/05/12 13:05:18;;;;;;;;;;;12.00;70.50;;;;;;5032504;28;86986;-41
2023/05/12 13:07:43;;;;;;;;;;;12.00;70.50;;;;;;5034176;28;87458;-41
2023/05/12 13:10:10;;;;;;;;;;;12.00;70.50;;;;;;5031387;28;87351;-41
2023/05/12 13:12:36;;;;;;;;;;;12.00;71.10;;;;;;5031777;28;87104;-41
2023/05/12 13:15:02;;;;;;;;;;;11.90;70.70;;;;;;5035535;28;87920;-41
2023/05/12 13:17:27;;;;;;;;;;;12.00;70.70;;;;;;5032107;28;87092;-41
2023/05/12 13:19:53;;;;;;;;;;;11.90;70.80;;;;;;5031051;27;87025;-41
2023/05/12 13:22:19;;;;;;;;;;;11.90;70.90;;;;;;5033050;28;87879;-41
2023/05/12 13:24:45;;;;;;;;;;;11.90;71.00;;;;;;5032902;28;87124;-41
2023/05/12 13:27:10;;;;;;;;;;;11.90;71.60;;;;;;5031410;28;87391;-41
2023/05/12 13:29:36;;;;;;;;;;;11.80;72.40;;;;;;5032616;28;87999;-41
2023/05/12 13:32:02;;;;;;;;;;;11.70;72.60;;;;;;5033980;28;86379;-41
2023/05/12 13:34:28;;;;;;;;;;;11.70;72.80;;;;;;5027463;28;88018;-41
2023/05/12 13:36:53;;;;;;;;;;;11.70;72.90;;;;;;5034274;28;87644;-41
2023/05/12 13:39:19;;;;;;;;;;;11.70;72.90;;;;;;5032714;28;87974;-41
2023/05/12 13:41:44;;;;;;;;;;;11.70;73.00;;;;;;5031605;28;88436;-41
2023/05/12 13:44:10;;;;;;;;;;;11.70;73.10;;;;;;5030582;27;87794;-41
2023/05/12 13:46:35;;;;;;;;;;;11.70;73.00;;;;;;5033846;28;87238;-41
2023/05/12 13:49:01;;;;;;;;;;;11.70;73.10;;;;;;5032029;28;87991;-41
2023/05/12 13:51:27;;;;;;;;;;;11.70;73.20;;;;;;5031095;28;87130;-40
2023/05/12 13:53:52;;;;;;;;;;;11.70;73.10;;;;;;5032934;28;87404;-42
2023/05/12 13:56:18;;;;;;;;;;;11.70;73.30;;;;;;5035876;28;88400;-41
2023/05/12 13:58:44;;;;;;;;;;;11.70;73.20;;;;;;5031475;27;86991;-41
2023/05/12 14:01:09;;;;;;;;;;;11.70;73.30;;;;;;5031426;28;87997;-41
2023/05/12 14:03:35;;;;;;;;;;;11.70;73.20;;;;;;5032112;28;88020;-41
2023/05/12 14:06:02;;;;;;;;;;;11.70;73.20;;;;;;5031275;28;88413;-41
2023/05/12 14:08:27;;;;;;;;;;;11.70;73.20;;;;;;5030383;28;89516;-41
2023/05/12 14:10:53;;;;;;;;;;;11.70;73.20;;;;;;5032886;28;87196;-41